createdAt,value
2023-08-14T00:00:55.928Z,805.33
2023-08-14T00:03:23.479Z,815.20
2023-08-14T00:05:50.499Z,807.03
2023-08-14T00:08:17.229Z,806.43
2023-08-14T00:10:44.021Z,808.63
2023-08-14T00:13:10.645Z,808.13
2023-08-14T00:15:37.703Z,805.63
2023-08-14T00:18:05.596Z,804.00
2023-08-14T00:20:32.477Z,806.93
2023-08-14T00:22:59.141Z,805.13
2023-08-14T00:25:25.817Z,806.83
2023-08-14T00:27:52.481Z,807.40
2023-08-14T00:30:19.214Z,805.90
2023-08-14T00:32:45.945Z,806.97
2023-08-14T00:35:12.816Z,804.70
2023-08-14T00:37:47.467Z,802.63
2023-08-14T00:40:15.553Z,807.33
2023-08-14T00:42:43.630Z,806.10
2023-08-14T00:45:11.058Z,807.97
2023-08-14T00:47:38.656Z,808.33
2023-08-14T00:50:07.650Z,808.03
2023-08-14T00:52:36.674Z,806.53
2023-08-14T00:55:08.733Z,806.07
2023-08-14T00:57:36.833Z,805.13
2023-08-14T01:00:06.322Z,806.50
2023-08-14T01:02:35.133Z,804.93
2023-08-14T01:05:02.049Z,804.93
2023-08-14T01:07:30.869Z,805.57
2023-08-14T01:09:58.321Z,806.57
2023-08-14T01:12:31.112Z,807.67
2023-08-14T01:15:04.544Z,806.77
2023-08-14T01:17:35.004Z,808.53
2023-08-14T01:20:03.744Z,807.03
2023-08-14T01:22:58.074Z,807.90
2023-08-14T01:25:32.948Z,805.33
2023-08-14T01:28:01.288Z,809.17
2023-08-14T01:30:28.278Z,808.23
2023-08-14T01:32:55.530Z,807.07
2023-08-14T01:35:25.077Z,807.73
2023-08-14T01:38:14.478Z,805.97
2023-08-14T01:40:59.749Z,807.43
2023-08-14T01:43:40.848Z,807.83
2023-08-14T01:46:11.052Z,808.83
2023-08-14T01:48:38.646Z,805.73
2023-08-14T01:51:06.364Z,807.43
2023-08-14T01:53:38.671Z,807.73
2023-08-14T01:56:05.430Z,808.03
2023-08-14T01:58:32.121Z,809.57
2023-08-14T02:00:58.833Z,807.83
2023-08-14T02:03:26.548Z,807.57
2023-08-14T02:05:53.369Z,807.03
2023-08-14T02:08:20.016Z,805.57
2023-08-14T02:10:47.616Z,804.33
2023-08-14T02:13:14.720Z,806.73
2023-08-14T02:15:41.458Z,806.70
2023-08-14T02:18:08.123Z,809.00
2023-08-14T02:20:34.936Z,806.13
2023-08-14T02:23:01.601Z,807.63
2023-08-14T02:25:28.306Z,808.07
2023-08-14T02:27:54.991Z,809.70
2023-08-14T02:30:21.617Z,808.93
2023-08-14T02:32:48.296Z,808.50
2023-08-14T02:35:15.014Z,808.33
2023-08-14T02:37:41.662Z,807.53
2023-08-14T02:40:09.077Z,809.07
2023-08-14T02:42:35.733Z,810.33
2023-08-14T02:45:02.638Z,811.23
2023-08-14T02:47:29.329Z,807.43
2023-08-14T02:49:55.967Z,808.53
2023-08-14T02:52:22.610Z,807.87
2023-08-14T02:54:49.278Z,806.80
2023-08-14T02:57:15.963Z,808.93
2023-08-14T02:59:42.655Z,810.43
2023-08-14T03:02:09.460Z,818.70
2023-08-14T03:04:36.250Z,818.33
2023-08-14T03:07:02.998Z,818.33
2023-08-14T03:09:29.660Z,812.07
2023-08-14T03:11:56.294Z,806.67
2023-08-14T03:14:22.971Z,810.83
2023-08-14T03:16:49.676Z,808.30
2023-08-14T03:19:16.331Z,812.23
2023-08-14T03:21:43.086Z,819.60
2023-08-14T03:24:09.767Z,819.03
2023-08-14T03:26:36.626Z,819.77
2023-08-14T03:29:03.773Z,817.33
2023-08-14T03:31:33.064Z,819.67
2023-08-14T03:34:01.011Z,813.23
2023-08-14T03:36:27.710Z,807.23
2023-08-14T03:38:54.420Z,809.50
2023-08-14T03:41:21.100Z,806.53
2023-08-14T03:43:48.414Z,807.10
2023-08-14T03:46:15.111Z,809.33
2023-08-14T03:48:41.753Z,809.53
2023-08-14T03:51:08.404Z,809.53
2023-08-14T03:53:35.203Z,807.30
2023-08-14T03:56:02.253Z,809.73
2023-08-14T03:58:28.963Z,808.03
2023-08-14T04:00:55.603Z,808.03
2023-08-14T04:03:23.133Z,818.30
2023-08-14T04:05:56.375Z,817.00
2023-08-14T04:08:23.018Z,809.57
2023-08-14T04:10:58.294Z,806.73
2023-08-14T04:13:26.353Z,809.47
2023-08-14T04:16:00.696Z,813.80
2023-08-14T04:18:30.873Z,810.60
2023-08-14T04:20:58.213Z,808.13
2023-08-14T04:23:26.141Z,808.03
2023-08-14T04:25:53.738Z,809.73
2023-08-14T04:28:20.369Z,809.17
2023-08-14T04:30:47.041Z,810.67
2023-08-14T04:33:13.719Z,809.63
2023-08-14T04:35:40.605Z,813.60
2023-08-14T04:38:07.327Z,810.23
2023-08-14T04:40:34.009Z,806.73
2023-08-14T04:43:00.712Z,817.90
2023-08-14T04:45:27.385Z,809.83
2023-08-14T04:47:56.870Z,811.57
2023-08-14T04:50:24.114Z,813.73
2023-08-14T04:52:50.748Z,813.20
2023-08-14T04:55:17.592Z,817.30
2023-08-14T04:57:44.371Z,813.60
2023-08-14T05:00:11.721Z,813.83
2023-08-14T05:02:38.422Z,810.47
2023-08-14T05:05:05.330Z,814.73
2023-08-14T05:07:32.003Z,809.13
2023-08-14T05:09:58.860Z,808.57
2023-08-14T05:12:25.522Z,809.00
2023-08-14T05:14:55.385Z,818.63
2023-08-14T05:17:22.130Z,811.20
2023-08-14T05:19:48.886Z,813.23
2023-08-14T05:22:15.762Z,808.43
2023-08-14T05:24:42.715Z,807.23
2023-08-14T05:27:09.346Z,813.10
2023-08-14T05:29:35.973Z,815.03
2023-08-14T05:32:02.609Z,815.03
2023-08-14T05:34:29.264Z,815.27
2023-08-14T05:36:55.883Z,812.37
2023-08-14T05:39:22.523Z,814.53
2023-08-14T05:41:50.613Z,815.50
2023-08-14T05:44:18.486Z,815.97
2023-08-14T05:46:48.138Z,817.53
2023-08-14T05:49:16.274Z,815.20
2023-08-14T05:51:43.034Z,820.77
2023-08-14T05:54:10.076Z,817.30
2023-08-14T05:56:36.758Z,838.20
2023-08-14T05:59:03.588Z,822.23
2023-08-14T06:01:30.394Z,832.93
2023-08-14T06:03:57.295Z,832.87
2023-08-14T06:06:24.089Z,822.57
2023-08-14T06:08:50.895Z,814.73
2023-08-14T06:11:17.650Z,821.37
2023-08-14T06:13:44.465Z,832.13
2023-08-14T06:16:11.995Z,827.70
2023-08-14T06:18:38.655Z,830.53
2023-08-14T06:21:05.383Z,831.27
2023-08-14T06:23:32.089Z,833.87
2023-08-14T06:25:59.311Z,830.87
2023-08-14T06:28:25.920Z,832.93
2023-08-14T06:30:52.671Z,839.30
2023-08-14T06:33:19.319Z,829.30
2023-08-14T06:35:45.998Z,832.07
2023-08-14T06:38:13.288Z,843.33
2023-08-14T06:40:40.212Z,831.00
2023-08-14T06:43:07.673Z,830.27
2023-08-14T06:45:34.732Z,841.63
2023-08-14T06:48:01.523Z,841.37
2023-08-14T06:50:28.272Z,828.70
2023-08-14T06:52:55.019Z,833.23
2023-08-14T06:55:21.984Z,827.33
2023-08-14T06:57:48.788Z,833.47
2023-08-14T07:00:16.107Z,832.27
2023-08-14T07:02:44.476Z,829.03
2023-08-14T07:05:12.376Z,826.13
2023-08-14T07:07:39.983Z,833.07
2023-08-14T07:10:07.599Z,840.10
2023-08-14T07:12:34.452Z,830.87
2023-08-14T07:15:05.907Z,832.47
2023-08-14T07:17:33.469Z,822.73
2023-08-14T07:20:00.614Z,839.97
2023-08-14T07:22:27.433Z,824.27
2023-08-14T07:24:54.105Z,820.47
2023-08-14T07:27:23.089Z,834.77
2023-08-14T07:29:51.032Z,846.00
2023-08-14T07:32:18.115Z,822.47
2023-08-14T07:34:44.979Z,832.87
2023-08-14T07:37:11.629Z,829.20
2023-08-14T07:39:38.243Z,822.33
2023-08-14T07:42:04.929Z,827.07
2023-08-14T07:44:31.583Z,838.37
2023-08-14T07:46:58.254Z,817.87
2023-08-14T07:49:24.955Z,833.67
2023-08-14T07:51:51.612Z,827.93
2023-08-14T07:54:18.332Z,831.80
2023-08-14T07:56:47.006Z,832.23
2023-08-14T07:59:14.885Z,823.63
2023-08-14T08:01:42.821Z,835.63
2023-08-14T08:04:09.568Z,827.90
2023-08-14T08:06:44.337Z,821.63
2023-08-14T08:09:12.504Z,828.27
2023-08-14T08:11:39.164Z,825.23
2023-08-14T08:14:08.795Z,822.23
2023-08-14T08:16:37.434Z,820.30
2023-08-14T08:19:07.380Z,836.33
2023-08-14T08:21:34.438Z,833.77
2023-08-14T08:24:01.330Z,827.77
2023-08-14T08:26:28.053Z,826.37
2023-08-14T08:28:54.705Z,829.37
2023-08-14T08:31:21.378Z,825.57
2023-08-14T08:33:48.087Z,823.30
2023-08-14T08:36:16.815Z,825.43
2023-08-14T08:38:43.590Z,819.10
2023-08-14T08:41:14.276Z,833.47
2023-08-14T08:43:42.218Z,820.50
2023-08-14T08:46:13.837Z,833.67
2023-08-14T08:48:43.757Z,834.87
2023-08-14T08:51:10.890Z,823.03
2023-08-14T08:53:38.406Z,832.27
2023-08-14T08:56:05.612Z,837.70
2023-08-14T08:58:32.575Z,830.90
2023-08-14T09:01:00.641Z,840.33
2023-08-14T09:03:27.498Z,814.43
2023-08-14T09:05:54.612Z,829.50
2023-08-14T09:08:21.333Z,836.73
2023-08-14T09:10:48.033Z,838.40
2023-08-14T09:13:15.717Z,830.27
2023-08-14T09:15:44.139Z,825.93
2023-08-14T09:18:11.998Z,822.50
2023-08-14T09:20:40.447Z,840.53
2023-08-14T09:23:13.541Z,830.03
2023-08-14T09:25:46.054Z,829.07
2023-08-14T09:28:13.497Z,820.13
2023-08-14T09:30:41.872Z,833.63
2023-08-14T09:33:10.373Z,840.50
2023-08-14T09:35:37.870Z,824.73
2023-08-14T09:38:05.063Z,822.10
2023-08-14T09:40:32.635Z,832.80
2023-08-14T09:42:59.816Z,822.27
2023-08-14T09:45:29.572Z,821.00
2023-08-14T09:48:05.448Z,830.33
2023-08-14T09:50:32.809Z,821.33
2023-08-14T09:53:01.683Z,825.17
2023-08-14T09:55:29.128Z,830.73
2023-08-14T09:57:59.351Z,816.77
2023-08-14T10:00:30.543Z,826.17
2023-08-14T10:03:03.097Z,833.70
2023-08-14T10:05:31.289Z,830.27
2023-08-14T10:07:59.615Z,827.17
2023-08-14T10:10:29.908Z,827.73
2023-08-14T10:13:05.946Z,828.47
2023-08-14T10:15:38.620Z,827.40
2023-08-14T10:18:13.716Z,825.47
2023-08-14T10:20:43.034Z,828.97
2023-08-14T10:23:10.142Z,834.70
2023-08-14T10:25:40.127Z,827.50
2023-08-14T10:28:10.282Z,818.27
2023-08-14T10:30:37.529Z,818.63
2023-08-14T10:33:05.460Z,825.07
2023-08-14T10:35:45.261Z,833.07
2023-08-14T10:38:12.146Z,822.83
2023-08-14T10:40:57.775Z,831.57
2023-08-14T10:43:29.298Z,833.63
2023-08-14T10:45:56.095Z,822.50
2023-08-14T10:48:23.131Z,836.73
2023-08-14T10:50:57.897Z,827.13
2023-08-14T10:53:24.637Z,822.87
2023-08-14T10:55:51.362Z,838.27
2023-08-14T10:58:32.814Z,831.00
2023-08-14T11:01:01.146Z,837.10
2023-08-14T11:03:28.509Z,832.07
2023-08-14T11:05:55.314Z,838.47
2023-08-14T11:08:22.375Z,830.37
2023-08-14T11:10:50.833Z,828.50
2023-08-14T11:13:18.029Z,821.37
2023-08-14T11:15:45.061Z,822.23
2023-08-14T11:18:12.058Z,830.07
2023-08-14T11:20:40.422Z,828.63
2023-08-14T11:23:07.665Z,831.90
2023-08-14T11:25:35.040Z,834.97
2023-08-14T11:28:01.930Z,832.10
2023-08-14T11:30:33.246Z,833.42
2023-08-14T11:32:59.917Z,834.63
2023-08-14T11:35:27.460Z,836.30
2023-08-14T11:37:54.394Z,839.70
2023-08-14T11:40:21.252Z,838.25
2023-08-14T11:42:47.990Z,822.13
2023-08-14T11:45:14.629Z,835.33
2023-08-14T11:47:48.437Z,833.38
2023-08-14T11:50:17.107Z,835.03
2023-08-14T11:52:44.589Z,827.00
2023-08-14T11:55:12.063Z,830.08
2023-08-14T11:57:39.602Z,828.55
2023-08-14T12:00:16.462Z,828.60
2023-08-14T12:02:44.857Z,837.72
2023-08-14T12:05:11.734Z,838.78
2023-08-14T12:07:42.886Z,838.30
2023-08-14T12:10:10.088Z,844.20
2023-08-14T12:12:44.828Z,849.92
2023-08-14T12:15:25.120Z,840.15
2023-08-14T12:17:53.218Z,837.28
2023-08-14T12:20:26.293Z,823.78
2023-08-14T12:23:00.005Z,824.95
2023-08-14T12:25:29.722Z,824.60
2023-08-14T12:27:56.867Z,825.65
2023-08-14T12:30:23.539Z,822.90
2023-08-14T12:32:50.271Z,825.55
2023-08-14T12:35:17.195Z,825.83
2023-08-14T12:37:43.855Z,827.55
2023-08-14T12:40:11.662Z,826.92
2023-08-14T12:42:38.744Z,825.25
2023-08-14T12:45:06.521Z,829.17
2023-08-14T12:47:33.465Z,830.25
2023-08-14T12:50:00.235Z,826.40
2023-08-14T12:52:28.807Z,829.17
2023-08-14T12:55:05.343Z,827.15
2023-08-14T12:57:33.082Z,828.67
2023-08-14T12:59:59.763Z,825.15
2023-08-14T13:04:57.742Z,828.15
2023-08-14T13:07:28.339Z,829.80
2023-08-14T13:09:54.994Z,824.88
2023-08-14T13:12:21.708Z,824.63
2023-08-14T13:14:48.370Z,825.67
2023-08-14T13:17:14.987Z,825.08
2023-08-14T13:19:41.666Z,829.70
2023-08-14T13:22:08.307Z,825.67
2023-08-14T13:24:35.314Z,827.55
2023-08-14T13:27:16.430Z,828.55
2023-08-14T13:29:43.207Z,831.28
2023-08-14T13:32:10.037Z,828.75
2023-08-14T13:34:36.817Z,828.65
2023-08-14T13:37:04.048Z,827.95
2023-08-14T13:39:30.853Z,828.58
2023-08-14T13:41:57.557Z,828.88
2023-08-14T13:44:24.415Z,828.47
2023-08-14T13:46:51.146Z,828.22
2023-08-14T13:49:17.920Z,827.15
2023-08-14T13:51:46.075Z,824.03
2023-08-14T13:54:13.086Z,827.22
2023-08-14T13:56:39.905Z,830.03
2023-08-14T13:59:06.759Z,824.88
2023-08-14T14:01:33.594Z,828.47
2023-08-14T14:04:00.524Z,829.00
2023-08-14T14:06:27.286Z,829.30
2023-08-14T14:08:54.006Z,830.50
2023-08-14T14:11:20.846Z,830.42
2023-08-14T14:13:47.550Z,832.33
2023-08-14T14:16:14.247Z,826.42
2023-08-14T14:18:40.919Z,824.15
2023-08-14T14:21:07.672Z,823.15
2023-08-14T14:23:34.411Z,824.28
2023-08-14T14:26:01.156Z,824.50
2023-08-14T14:28:30.243Z,826.47
2023-08-14T14:30:57.497Z,823.53
2023-08-14T14:33:24.297Z,820.85
2023-08-14T14:35:51.107Z,824.80
2023-08-14T14:38:17.800Z,824.67
2023-08-14T14:40:44.454Z,825.92
2023-08-14T14:43:11.399Z,827.05
2023-08-14T14:45:38.301Z,828.08
2023-08-14T14:48:05.419Z,827.10
2023-08-14T14:50:32.336Z,827.42
2023-08-14T14:52:59.307Z,827.95
2023-08-14T14:55:29.021Z,827.97
2023-08-14T14:57:55.895Z,827.25
2023-08-14T15:00:23.425Z,825.33
2023-08-14T15:02:51.489Z,822.63
2023-08-14T15:07:48.857Z,823.78
2023-08-14T15:10:15.498Z,822.63
2023-08-14T15:12:42.182Z,825.90
2023-08-14T15:15:09.237Z,821.10
2023-08-14T15:17:39.536Z,823.03
2023-08-14T15:20:11.583Z,825.75
2023-08-14T15:22:38.553Z,824.70
2023-08-14T15:25:06.571Z,825.58
2023-08-14T15:27:33.265Z,824.83
2023-08-14T15:30:00.086Z,823.88
2023-08-14T15:32:26.858Z,822.27
2023-08-14T15:34:53.702Z,822.47
2023-08-14T15:37:20.830Z,822.50
2023-08-14T15:39:48.735Z,819.80
2023-08-14T15:42:16.957Z,821.85
2023-08-14T15:44:43.662Z,822.97
2023-08-14T15:47:10.340Z,821.08
2023-08-14T15:49:37.109Z,821.28
2023-08-14T15:52:03.858Z,820.97
2023-08-14T15:54:43.035Z,822.28
2023-08-14T15:57:17.418Z,825.10
2023-08-14T15:59:44.345Z,823.00
2023-08-14T16:02:11.109Z,822.47
2023-08-14T16:04:37.885Z,823.75
2023-08-14T16:07:04.652Z,821.45
2023-08-14T16:09:31.518Z,822.20
2023-08-14T16:11:58.508Z,820.63
2023-08-14T16:14:25.783Z,820.73
2023-08-14T16:16:52.643Z,819.70
2023-08-14T16:19:21.770Z,820.17
2023-08-14T16:21:48.573Z,822.37
2023-08-14T16:24:15.342Z,815.93
2023-08-14T16:26:42.058Z,812.70
2023-08-14T16:29:08.725Z,814.40
2023-08-14T16:31:35.662Z,814.43
2023-08-14T16:34:02.381Z,815.10
2023-08-14T16:36:29.132Z,813.33
2023-08-14T16:38:55.801Z,812.10
2023-08-14T16:41:22.748Z,819.57
2023-08-14T16:43:49.391Z,813.40
2023-08-14T16:46:16.148Z,817.40
2023-08-14T16:48:43.055Z,817.13
2023-08-14T16:51:09.868Z,818.40
2023-08-14T16:53:36.579Z,818.30
2023-08-14T16:56:03.315Z,816.93
2023-08-14T16:58:30.033Z,811.70
2023-08-14T17:00:56.809Z,809.63
2023-08-14T17:03:23.534Z,806.60
2023-08-14T17:05:58.994Z,805.17
2023-08-14T17:08:25.632Z,807.60
2023-08-14T17:10:52.268Z,809.03
2023-08-14T17:13:18.958Z,807.73
2023-08-14T17:15:45.801Z,807.83
2023-08-14T17:18:12.648Z,807.90
2023-08-14T17:20:46.412Z,809.70
2023-08-14T17:23:13.447Z,808.93
2023-08-14T17:25:41.391Z,807.50
2023-08-14T17:28:08.321Z,808.53
2023-08-14T17:30:38.789Z,802.17
2023-08-14T17:33:05.757Z,806.10
2023-08-14T17:35:32.555Z,806.00
2023-08-14T17:37:59.287Z,806.13
2023-08-14T17:40:25.958Z,806.13
2023-08-14T17:42:52.621Z,806.30
2023-08-14T17:45:19.291Z,816.07
2023-08-14T17:47:46.147Z,808.57
2023-08-14T17:50:12.919Z,803.57
2023-08-14T17:52:39.649Z,805.13
2023-08-14T17:55:06.774Z,808.57
2023-08-14T17:57:34.682Z,806.90
2023-08-14T18:00:01.401Z,806.00
2023-08-14T18:02:28.177Z,807.13
2023-08-14T18:04:54.976Z,806.23
2023-08-14T18:07:21.920Z,805.87
2023-08-14T18:09:48.834Z,806.97
2023-08-14T18:12:15.526Z,809.50
2023-08-14T18:14:42.215Z,807.33
2023-08-14T18:17:09.010Z,807.30
2023-08-14T18:19:35.713Z,811.57
2023-08-14T18:22:02.429Z,807.67
2023-08-14T18:24:29.104Z,810.23
2023-08-14T18:26:56.135Z,808.93
2023-08-14T18:29:22.812Z,809.13
2023-08-14T18:31:49.612Z,808.10
2023-08-14T18:34:16.331Z,806.53
2023-08-14T18:36:43.057Z,810.37
2023-08-14T18:39:09.801Z,806.13
2023-08-14T18:41:38.028Z,808.73
2023-08-14T18:44:05.661Z,807.23
2023-08-14T18:46:32.607Z,806.63
2023-08-14T18:48:59.559Z,801.43
2023-08-14T18:51:26.233Z,806.63
2023-08-14T18:53:53.106Z,804.73
2023-08-14T18:56:19.812Z,807.20
2023-08-14T18:58:48.439Z,807.03
2023-08-14T19:01:15.287Z,806.30
2023-08-14T19:03:42.375Z,805.10
2023-08-14T19:06:09.177Z,804.53
2023-08-14T19:08:35.888Z,807.17
2023-08-14T19:11:02.582Z,813.03
2023-08-14T19:13:29.670Z,805.70
2023-08-14T19:15:56.409Z,806.40
2023-08-14T19:18:23.180Z,806.63
2023-08-14T19:20:50.275Z,807.40
2023-08-14T19:23:17.002Z,805.53
2023-08-14T19:25:43.732Z,818.67
2023-08-14T19:28:20.951Z,805.87
2023-08-14T19:30:48.912Z,808.00
2023-08-14T19:33:15.867Z,807.70
2023-08-14T19:35:43.910Z,807.00
2023-08-14T19:38:10.931Z,805.70
2023-08-14T19:40:37.960Z,809.93
2023-08-14T19:43:05.065Z,805.90
2023-08-14T19:45:31.774Z,806.13
2023-08-14T19:47:58.538Z,814.60
2023-08-14T19:50:25.310Z,815.07
2023-08-14T19:52:52.035Z,813.07
2023-08-14T19:55:18.779Z,811.00
2023-08-14T19:57:45.827Z,813.80
2023-08-14T20:00:13.188Z,812.70
2023-08-14T20:02:39.923Z,814.47
2023-08-14T20:05:06.877Z,812.80
2023-08-14T20:07:33.569Z,808.60
2023-08-14T20:10:01.336Z,808.40
2023-08-14T20:12:28.100Z,805.73
2023-08-14T20:14:55.003Z,815.87
2023-08-14T20:17:21.966Z,806.03
2023-08-14T20:19:49.242Z,808.70
2023-08-14T20:22:15.961Z,808.53
2023-08-14T20:24:42.785Z,804.87
2023-08-14T20:27:09.568Z,806.90
2023-08-14T20:29:36.281Z,805.40
2023-08-14T20:32:03.120Z,807.20
2023-08-14T20:34:30.244Z,813.60
2023-08-14T20:36:56.933Z,814.00
2023-08-14T20:39:24.731Z,811.83
2023-08-14T20:41:51.457Z,814.53
2023-08-14T20:44:18.242Z,814.63
2023-08-14T20:46:44.974Z,816.00
2023-08-14T20:49:12.022Z,813.30
2023-08-14T20:51:38.872Z,817.03
2023-08-14T20:54:06.078Z,812.40
2023-08-14T20:56:32.932Z,814.63
2023-08-14T20:58:59.565Z,813.90
2023-08-14T21:01:26.281Z,815.83
2023-08-14T21:03:53.082Z,816.23
2023-08-14T21:06:19.898Z,807.43
2023-08-14T21:08:46.630Z,815.87
2023-08-14T21:11:16.148Z,816.27
2023-08-14T21:13:44.284Z,815.37
2023-08-14T21:16:11.096Z,814.90
2023-08-14T21:18:38.395Z,815.53
2023-08-14T21:21:05.557Z,814.47
2023-08-14T21:23:32.269Z,812.77
2023-08-14T21:25:59.012Z,814.70
2023-08-14T21:28:25.816Z,812.80
2023-08-14T21:30:59.909Z,813.40
2023-08-14T21:33:29.443Z,815.50
2023-08-14T21:35:56.929Z,816.33
2023-08-14T21:38:23.764Z,813.13
2023-08-14T21:40:50.709Z,816.70
2023-08-14T21:43:18.307Z,816.40
2023-08-14T21:45:48.261Z,812.50
2023-08-14T21:48:15.047Z,813.53
2023-08-14T21:50:41.896Z,814.63
2023-08-14T21:53:08.846Z,815.30
2023-08-14T21:55:35.511Z,817.07
2023-08-14T21:58:02.216Z,815.40
2023-08-14T22:00:29.092Z,813.40
2023-08-14T22:02:55.911Z,815.33
2023-08-14T22:05:22.712Z,812.77
2023-08-14T22:07:49.463Z,815.73
2023-08-14T22:10:16.202Z,814.13
2023-08-14T22:12:45.734Z,816.13
2023-08-14T22:15:12.781Z,816.13
2023-08-14T22:17:39.552Z,814.63
2023-08-14T22:20:07.621Z,814.93
2023-08-14T22:22:34.257Z,812.70
2023-08-14T22:25:00.950Z,816.47
2023-08-14T22:27:28.125Z,814.33
2023-08-14T22:29:54.849Z,814.00
2023-08-14T22:32:21.551Z,815.30
2023-08-14T22:34:48.313Z,815.83
2023-08-14T22:37:15.020Z,817.53
2023-08-14T22:39:41.655Z,816.10
2023-08-14T22:42:08.293Z,815.63
2023-08-14T22:44:34.951Z,815.93
2023-08-14T22:47:01.723Z,814.37
2023-08-14T22:49:28.596Z,817.23
2023-08-14T22:51:55.333Z,816.60
2023-08-14T22:54:22.029Z,814.60
2023-08-14T22:56:48.871Z,814.13
2023-08-14T22:59:15.586Z,815.13
2023-08-14T23:01:42.248Z,803.23
2023-08-14T23:04:08.971Z,807.53
2023-08-14T23:06:35.738Z,804.83
2023-08-14T23:09:02.437Z,804.20
2023-08-14T23:11:31.426Z,805.13
2023-08-14T23:13:58.127Z,804.03
2023-08-14T23:16:24.866Z,806.70
2023-08-14T23:18:51.535Z,808.20
2023-08-14T23:21:18.261Z,808.80
2023-08-14T23:23:44.882Z,805.50
2023-08-14T23:26:11.616Z,808.00
2023-08-14T23:28:38.383Z,807.40
2023-08-14T23:31:05.164Z,807.33
2023-08-14T23:33:31.981Z,809.40
2023-08-14T23:35:58.797Z,808.50
2023-08-14T23:38:25.596Z,804.23
2023-08-14T23:40:52.347Z,807.03
2023-08-14T23:43:19.048Z,805.03
2023-08-14T23:45:46.444Z,807.00
2023-08-14T23:48:13.351Z,806.00
2023-08-14T23:50:40.183Z,805.83
2023-08-14T23:53:06.868Z,806.37
2023-08-14T23:55:33.582Z,807.73
2023-08-14T23:58:00.359Z,808.07
